Flight Track Log - Related Links

Times and Time Zones

All times are in EDT time to prevent confusion due to time zone crossing. See the N7985N flight status page for this flight to view local times or setup timezone preferences in your user account.

Time Position Orientation Groundspeed Altitude Reporting Facility
EDT Latitude Longitude Course Direction KTS MPH feet Rate Location/Type
Sun 11:13:20 AM 35.4914 -91.7953 99° East 120 138 4,400  Level Memphis Center
Sun 11:14:20 AM 35.4897 -91.7619 94° East 113 130 4,900 350 Climbing Memphis Center
Sun 11:15:20 AM 35.4881 -91.7239 93° East 108 124 5,100 100 Climbing Memphis Center
Sun 11:16:20 AM 35.4822 -91.6803 99° East 108 124 5,100  Level Memphis Center
Sun 11:17:20 AM 35.4806 -91.6419 93° East 108 124 5,100 50 Level Memphis Center
Sun 11:18:00 AM 35.4868 -91.7780 99° East  Level Estimated
Sun 11:18:20 AM 35.4767 -91.6039 97° East 108 124 5,200  Level Memphis Center
Sun 11:19:20 AM 35.4731 -91.5656 97° East 108 124 5,200  Level Memphis Center
Sun 11:20:20 AM 35.4692 -91.5272 97° East 108 124 5,200 -50 Level Memphis Center
Sun 11:21:20 AM 35.4633 -91.4839 99° East 108 124 5,100 -100 Descending Memphis Center
Sun 11:22:20 AM 35.4553 -91.4428 104° East 118 136 5,000  Descending Memphis Center
Sun 11:23:20 AM 35.4536 -91.3994 93° East 129 148 5,100 50 Climbing Memphis Center
Sun 11:24:20 AM 35.4478 -91.3611 101° East 119 137 5,100  Level Memphis Center
Sun 11:25:20 AM 35.4417 -91.3256 102° East 119 137 5,100  Level Memphis Center
Sun 11:26:20 AM 35.4358 -91.2847 100° East 114 131 5,100  Level Memphis Center
Sun 11:27:20 AM 35.4319 -91.2464 97° East 114 131 5,100  Level Memphis Center
Sun 11:28:20 AM 35.4281 -91.2106 98° East 114 131 5,100  Level Memphis Center
Sun 11:29:20 AM 35.4283 -91.1697 90° East 114 131 5,100  Level Memphis Center
Sun 11:30:20 AM 35.4200 -91.1264 103° East 114 131 5,100  Level Memphis Center
Sun 11:31:20 AM 35.4142 -91.0883 101° East 114 131 5,100  Level Memphis Center
Sun 11:32:20 AM 35.4122 -91.0475 93° East 120 138 5,100  Level Memphis Center
Sun 11:33:20 AM 35.4103 -91.0067 93° East 120 138 5,100  Level Memphis Center
Sun 11:34:20 AM 35.4003 -90.9633 106° East 120 138 5,100  Level Memphis Center
Sun 11:35:20 AM 35.3942 -90.9250 101° East 115 132 5,100  Level Memphis Center
Sun 11:36:20 AM 35.3881 -90.8842 100° East 115 132 5,100  Level Memphis Center
Sun 11:37:20 AM 35.3839 -90.8461 98° East 115 132 5,100  Level Memphis Center
Sun 11:38:20 AM 35.3819 -90.8028 93° East 115 132 5,100 -50 Level Memphis Center
Sun 11:39:20 AM 35.3739 -90.7669 105° East 115 132 5,000 -50 Descending Memphis Center
Sun 11:40:20 AM 35.3719 -90.7289 94° East 115 132 5,000 50 Level Memphis Center
Sun 11:41:20 AM 35.3658 -90.6906 101° East 115 132 5,100 50 Climbing Memphis Center
Sun 11:42:20 AM 35.3617 -90.6525 98° East 109 125 5,100  Level Memphis Center
Sun 11:43:20 AM 35.3597 -90.6192 94° East 109 125 5,100  Level Memphis Center
Sun 11:44:20 AM 35.3575 -90.5811 94° East 109 125 5,100  Level Memphis Center
Sun 11:45:20 AM 35.3536 -90.5403 97° East 109 125 5,100  Level Memphis Center
Sun 11:46:20 AM 35.3472 -90.5022 102° East 104 120 5,100  Level Memphis Center
Sun 11:47:20 AM 35.3411 -90.4664 102° East 104 120 5,100  Level Memphis Center
Sun 11:48:20 AM 35.3347 -90.4258 101° East 109 125 5,100  Level Memphis Center
Sun 11:50:21 AM 35.3167 -90.3333 103° East 116 133 5,100  Level KMEM
Sun 11:51:22 AM 35.3167 -90.3000 90° East 113 130 5,100  Level KMEM
Sun 11:52:27 AM 35.3167 -90.2667 90° East 113 130 5,100 -46 Level KMEM
Sun 11:53:33 AM 35.3167 -90.2167 90° East 113 130 5,000 -48 Descending KMEM
Sun 11:54:33 AM 35.3000 -90.1833 121° Southeast 113 130 5,000 47 Level KMEM
Sun 11:55:41 AM 35.3000 -90.1333 90° East 117 135 5,100 45 Climbing KMEM
Sun 11:56:45 AM 35.2833 -90.1000 121° Southeast 109 125 5,100  Level KMEM
Sun 11:57:45 AM 35.2833 -90.0667 90° East 111 128 5,100 50 Level KMEM
Sun 11:58:45 AM 35.2833 -90.0167 90° East 122 140 5,200 50 Climbing KMEM
Sun 11:59:45 AM 35.2833 -89.9833 90° East 117 135 5,200 -50 Level KMEM
Sun 12:00:45 PM 35.2833 -89.9500 90° East 116 133 5,100 -100 Descending KMEM
Sun 12:01:45 PM 35.2667 -89.9000 112° Southeast 122 140 5,000  Descending KMEM
Sun 12:02:51 PM 35.2667 -89.8667 90° East 116 133 5,100 50 Climbing KMEM
Sun 12:03:45 PM 35.2667 -89.8333 90° East 117 135 5,100 -105 Level KMEM
Sun 12:04:45 PM 35.2667 -89.7833 90° East 117 135 4,900 -400 Descending KMEM
Sun 12:05:45 PM 35.2500 -89.7500 121° Southeast 121 139 4,300 -550 Descending KMEM
Sun 12:06:45 PM 35.2500 -89.7000 90° East 116 133 3,800 -500 Descending KMEM
Sun 12:07:45 PM 35.2500 -89.6667 90° East 116 133 3,300 -350 Descending KMEM
Sun 12:08:45 PM 35.2333 -89.6333 121° Southeast 117 135 3,100 -100 Descending KMEM
Sun 12:09:45 PM 35.2333 -89.5833 90° East 116 133 3,100 -50 Level KMEM
Sun 12:10:45 PM 35.2333 -89.5500 90° East 119 137 3,000  Descending KMEM
Sun 12:11:39 PM 35.2333 -89.5167 90° East 118 136 3,100 111 Climbing KMEM

Login

Don't have an account? Register now (free) for customized features, flight alerts, and more!